Time;durP1;ratioP1;P1;durP2;ratioP2;P2;SDS_P1;SDS_P2;PMS_P1;PMS_P2;Temp;Humidity;BMP_temperature;BMP_pressure;BME280_temperature;BME280_humidity;BME280_pressure;Samples;Min_cycle;Max_cycle;Signal;HPM_P1;HPM_P2
2021/06/05 00:00:50;;;;;;;19.20;17.50;;;21.70;99.90;;;;;;2064247;28;20097;-70
2021/06/05 00:01:54;;;;;;;18.88;17.10;;;21.70;99.90;;;;;;2063193;28;20189;-70
2021/06/05 00:02:55;;;;;;;21.13;19.23;;;21.70;99.90;;;;;;2063872;28;20113;-70
2021/06/05 00:03:58;;;;;;;22.45;20.23;;;21.70;99.90;;;;;;2063254;28;20033;-71
2021/06/05 00:04:59;;;;;;;20.08;18.27;;;21.70;99.90;;;;;;2064233;28;20034;-70
2021/06/05 00:06:00;;;;;;;16.83;15.30;;;21.70;99.90;;;;;;2063750;28;20462;-70
2021/06/05 00:07:01;;;;;;;20.98;19.20;;;21.70;99.90;;;;;;2064220;28;20066;-70
2021/06/05 00:08:02;;;;;;;20.70;18.83;;;21.70;99.90;;;;;;2062877;28;20026;-70
2021/06/05 00:09:05;;;;;;;21.67;19.73;;;21.70;99.90;;;;;;2062643;28;20061;-70
2021/06/05 00:10:08;;;;;;;21.83;19.92;;;21.70;99.90;;;;;;2058741;28;20018;-71
2021/06/05 00:11:09;;;;;;;22.80;20.60;;;21.70;99.90;;;;;;2064058;28;20018;-71
2021/06/05 00:12:12;;;;;;;23.58;21.20;;;21.60;99.90;;;;;;2059100;28;20062;-70
2021/06/05 00:13:20;;;;;;;22.15;20.00;;;21.60;99.90;;;;;;2058087;28;20419;-71
2021/06/05 00:14:21;;;;;;;23.88;21.55;;;21.60;99.90;;;;;;2064018;28;20026;-71
2021/06/05 00:15:27;;;;;;;22.92;20.83;;;21.60;99.90;;;;;;2064389;28;20077;-71
2021/06/05 00:16:31;;;;;;;25.35;22.92;;;21.60;99.90;;;;;;2064090;28;20018;-71
2021/06/05 00:17:32;;;;;;;24.92;22.40;;;21.60;99.90;;;;;;2070971;28;20106;-70
2021/06/05 00:18:33;;;;;;;20.25;18.35;;;21.60;99.90;;;;;;2066100;28;20650;-70
2021/06/05 00:19:34;;;;;;;25.60;22.95;;;21.60;99.90;;;;;;2063404;28;20066;-71
2021/06/05 00:20:36;;;;;;;17.92;16.33;;;21.60;99.90;;;;;;2060668;28;20098;-71
2021/06/05 00:21:37;;;;;;;22.55;20.45;;;21.60;99.90;;;;;;2059709;28;20022;-70
2021/06/05 00:22:38;;;;;;;17.27;15.68;;;21.60;99.90;;;;;;2063321;28;20038;-71
2021/06/05 00:23:39;;;;;;;25.33;22.80;;;21.60;99.90;;;;;;2062851;28;20026;-71
2021/06/05 00:24:41;;;;;;;21.50;19.55;;;21.60;99.90;;;;;;2060290;28;20035;-71
2021/06/05 00:25:42;;;;;;;24.60;22.15;;;21.50;99.90;;;;;;2064318;28;20112;-70
2021/06/05 00:26:43;;;;;;;26.13;23.52;;;21.60;99.90;;;;;;2063748;28;20026;-71
2021/06/05 00:27:43;;;;;;;26.60;23.85;;;21.50;99.90;;;;;;2063873;28;20053;-71
2021/06/05 00:28:44;;;;;;;25.40;22.98;;;21.50;99.90;;;;;;2064164;28;20030;-71
2021/06/05 00:29:44;;;;;;;20.30;18.50;;;21.50;99.90;;;;;;2063995;28;20062;-71
2021/06/05 00:30:45;;;;;;;21.30;19.15;;;21.50;99.90;;;;;;2063449;28;20197;-71
2021/06/05 00:31:46;;;;;;;27.58;24.77;;;21.50;99.90;;;;;;2062756;28;20037;-70
2021/06/05 00:32:46;;;;;;;24.60;22.25;;;21.50;99.90;;;;;;2064280;28;20042;-71
2021/06/05 00:33:47;;;;;;;18.95;17.17;;;21.50;99.90;;;;;;2064114;28;20029;-71
2021/06/05 00:34:47;;;;;;;19.83;17.77;;;21.50;99.90;;;;;;2063900;28;20026;-71
2021/06/05 00:35:48;;;;;;;19.67;17.90;;;21.40;99.90;;;;;;2063767;28;20064;-71
2021/06/05 00:36:49;;;;;;;22.95;20.65;;;21.40;99.90;;;;;;2063701;28;20022;-71
2021/06/05 00:37:50;;;;;;;15.23;13.75;;;21.40;99.90;;;;;;2063594;28;20027;-71
2021/06/05 00:38:50;;;;;;;24.27;21.90;;;21.40;99.90;;;;;;2063657;28;20486;-71
2021/06/05 00:39:51;;;;;;;22.00;20.00;;;21.40;99.90;;;;;;2064197;28;20930;-71
2021/06/05 00:40:54;;;;;;;24.50;22.17;;;21.40;99.90;;;;;;2064086;28;20034;-71
2021/06/05 00:41:55;;;;;;;22.25;19.73;;;21.40;99.90;;;;;;2056540;28;20042;-71
2021/06/05 00:42:56;;;;;;;23.75;21.35;;;21.40;99.90;;;;;;2061708;28;20050;-71
2021/06/05 00:44:00;;;;;;;23.30;21.00;;;21.40;99.90;;;;;;2063723;28;20069;-71
2021/06/05 00:45:01;;;;;;;25.27;22.85;;;21.30;99.90;;;;;;2064098;28;20813;-71
2021/06/05 00:46:01;;;;;;;19.52;17.70;;;21.40;99.90;;;;;;2063799;28;20394;-71
2021/06/05 00:47:03;;;;;;;23.73;21.15;;;21.30;99.90;;;;;;2064008;28;20052;-71
2021/06/05 00:48:04;;;;;;;23.25;21.10;;;21.30;99.90;;;;;;2063848;28;20026;-71
2021/06/05 00:49:07;;;;;;;22.02;19.98;;;21.30;99.90;;;;;;2063709;28;20377;-70
2021/06/05 00:50:10;;;;;;;23.60;21.17;;;21.30;99.90;;;;;;2062965;28;20035;-70
2021/06/05 00:51:11;;;;;;;25.67;23.17;;;21.30;99.90;;;;;;2062319;28;20058;-71
2021/06/05 00:52:14;;;;;;;25.48;23.05;;;21.30;99.90;;;;;;2063248;28;20034;-71
2021/06/05 00:53:17;;;;;;;22.67;20.55;;;21.30;99.90;;;;;;2064048;28;20057;-71
2021/06/05 00:54:20;;;;;;;26.08;23.65;;;21.30;99.90;;;;;;2063502;28;20509;-71
2021/06/05 00:55:23;;;;;;;26.95;24.42;;;21.30;99.90;;;;;;2063201;28;20027;-70
2021/06/05 00:56:23;;;;;;;23.88;21.55;;;21.30;99.90;;;;;;2063801;28;20441;-70
2021/06/05 00:57:24;;;;;;;20.63;18.60;;;21.30;99.90;;;;;;2063784;28;20049;-70
2021/06/05 00:58:26;;;;;;;19.80;17.90;;;21.30;99.90;;;;;;2063764;28;20049;-71
2021/06/05 00:59:27;;;;;;;22.88;20.75;;;21.30;99.90;;;;;;2063482;28;20030;-71
2021/06/05 01:00:36;;;;;;;23.30;21.13;;;21.20;99.90;;;;;;2064089;28;20034;-70
2021/06/05 01:01:37;;;;;;;21.60;19.40;;;21.20;99.90;;;;;;2063243;28;20101;-70
2021/06/05 01:02:37;;;;;;;29.02;25.33;;;21.20;99.90;;;;;;2063444;28;20030;-70
2021/06/05 01:03:39;;;;;;;27.00;24.48;;;21.20;99.90;;;;;;2064037;28;20486;-71
2021/06/05 01:04:40;;;;;;;26.67;24.08;;;21.20;99.90;;;;;;2063147;28;20042;-71
2021/06/05 01:05:43;;;;;;;28.83;25.98;;;21.20;99.90;;;;;;2063440;28;20026;-71
2021/06/05 01:06:52;;;;;;;27.58;24.88;;;21.20;99.90;;;;;;2063182;28;20078;-71
2021/06/05 01:08:02;;;;;;;17.92;16.23;;;21.20;99.90;;;;;;2064086;28;20034;-71
2021/06/05 01:09:08;;;;;;;20.98;18.92;;;21.20;99.90;;;;;;2063502;28;20481;-71
2021/06/05 01:10:23;;;;;;;20.92;19.02;;;21.20;99.90;;;;;;2063765;28;20540;-70
2021/06/05 01:11:35;;;;;;;19.65;17.75;;;21.20;99.90;;;;;;2067629;28;20027;-70
2021/06/05 01:12:58;;;;;;;23.95;21.63;;;21.10;99.90;;;;;;2052553;28;20386;-70
2021/06/05 01:14:12;;;;;;;20.70;18.73;;;21.10;99.90;;;;;;2057874;28;20482;-71
2021/06/05 01:15:26;;;;;;;25.33;22.83;;;21.10;99.90;;;;;;2063065;28;20054;-71
2021/06/05 01:16:28;;;;;;;22.58;20.27;;;21.10;99.90;;;;;;2063801;28;20061;-71
2021/06/05 01:17:32;;;;;;;18.92;17.13;;;21.10;99.90;;;;;;2063613;28;20097;-70
2021/06/05 01:18:39;;;;;;;21.77;19.73;;;21.10;99.90;;;;;;2063124;28;20109;-70
2021/06/05 01:19:44;;;;;;;25.73;23.15;;;21.10;99.90;;;;;;2063283;28;20033;-70
2021/06/05 01:21:19;;;;;;;25.77;23.17;;;21.10;99.90;;;;;;2064029;28;20023;-70
2021/06/05 01:22:47;;;;;;;25.60;23.17;;;21.00;99.90;;;;;;2055139;28;20066;-70
2021/06/05 01:24:14;;;;;;;28.05;25.45;;;21.00;99.90;;;;;;2063012;28;20038;-71
2021/06/05 01:25:33;;;;;;;25.52;23.00;;;21.00;99.90;;;;;;2063566;28;20164;-71
2021/06/05 01:26:41;;;;;;;23.58;21.30;;;21.00;99.90;;;;;;2063403;28;20026;-71
2021/06/05 01:27:50;;;;;;;20.70;18.63;;;21.00;99.90;;;;;;2062441;28;20457;-71
2021/06/05 01:29:02;;;;;;;25.70;23.02;;;21.00;99.90;;;;;;2063410;28;20046;-71
2021/06/05 01:30:11;;;;;;;25.45;22.90;;;21.00;99.90;;;;;;2063113;28;20034;-71
2021/06/05 01:31:18;;;;;;;25.02;22.45;;;20.90;99.90;;;;;;2063544;28;20034;-71
2021/06/05 01:32:18;;;;;;;25.40;22.80;;;21.00;99.90;;;;;;2055472;28;20449;-71
2021/06/05 01:33:22;;;;;;;25.17;22.77;;;20.90;99.90;;;;;;2061914;28;20089;-71
2021/06/05 01:34:25;;;;;;;21.70;19.50;;;20.90;99.90;;;;;;2070413;28;20044;-71
2021/06/05 01:35:28;;;;;;;21.23;19.27;;;20.90;99.90;;;;;;2070973;28;20030;-71
2021/06/05 01:36:40;;;;;;;21.23;19.13;;;20.90;99.90;;;;;;2063501;28;20026;-71
2021/06/05 01:37:41;;;;;;;26.05;23.38;;;21.00;99.90;;;;;;2071565;28;20389;-71
2021/06/05 01:38:45;;;;;;;24.38;21.90;;;20.90;99.90;;;;;;2070645;28;20025;-71
2021/06/05 01:39:48;;;;;;;21.60;19.55;;;20.90;99.90;;;;;;2063225;28;20022;-71
2021/06/05 01:40:50;;;;;;;29.70;26.70;;;20.90;99.90;;;;;;2063464;28;20022;-70
2021/06/05 01:41:52;;;;;;;22.67;20.55;;;20.90;99.90;;;;;;2061540;28;20038;-71
2021/06/05 01:42:54;;;;;;;19.23;17.33;;;20.90;99.90;;;;;;2063223;28;20105;-71
2021/06/05 01:43:55;;;;;;;25.55;23.10;;;20.90;99.90;;;;;;2063367;28;20054;-71
2021/06/05 01:44:58;;;;;;;24.15;21.85;;;20.90;99.90;;;;;;2057992;28;20249;-71
2021/06/05 01:45:59;;;;;;;28.75;25.77;;;20.90;99.90;;;;;;2063363;28;20122;-71
2021/06/05 01:47:00;;;;;;;27.25;24.27;;;20.90;99.90;;;;;;2062999;28;20018;-71
2021/06/05 01:48:01;;;;;;;26.83;24.30;;;20.90;99.90;;;;;;2063647;28;20425;-71
2021/06/05 01:49:03;;;;;;;27.48;24.75;;;20.90;99.90;;;;;;2063535;28;20021;-71
2021/06/05 01:50:09;;;;;;;27.67;25.02;;;20.90;99.90;;;;;;2063398;28;20069;-71
2021/06/05 01:51:16;;;;;;;27.70;24.98;;;20.90;99.90;;;;;;2063195;28;20403;-71
2021/06/05 01:52:21;;;;;;;31.27;28.15;;;20.90;99.90;;;;;;2062737;28;20129;-71
2021/06/05 01:53:27;;;;;;;28.38;25.60;;;20.90;99.90;;;;;;2063458;28;20038;-71
2021/06/05 01:54:37;;;;;;;31.58;28.48;;;20.90;99.90;;;;;;2057727;28;20027;-71
2021/06/05 01:55:47;;;;;;;31.50;28.40;;;20.90;99.90;;;;;;2059000;28;20105;-71
2021/06/05 01:56:54;;;;;;;;;;;20.90;99.90;;;;;;2064309;28;20902;-71
2021/06/05 01:57:57;;;;;;;30.23;25.88;;;20.80;99.90;;;;;;2063135;28;19913;-71
2021/06/05 01:58:59;;;;;;;30.02;27.02;;;20.80;99.90;;;;;;2063485;28;20064;-71
2021/06/05 02:00:00;;;;;;;27.02;24.33;;;20.80;99.90;;;;;;2063714;28;20494;-71
2021/06/05 02:01:03;;;;;;;28.95;26.17;;;20.80;99.90;;;;;;2064448;28;20037;-71
2021/06/05 02:02:05;;;;;;;28.60;25.70;;;20.80;99.90;;;;;;2063961;28;20447;-71
2021/06/05 02:03:06;;;;;;;28.90;26.17;;;20.80;99.90;;;;;;2064722;28;20038;-71
2021/06/05 02:04:08;;;;;;;29.90;27.05;;;20.90;99.90;;;;;;2064540;28;20034;-71
2021/06/05 02:05:09;;;;;;;29.63;26.67;;;20.90;99.90;;;;;;2064130;28;20081;-71
2021/06/05 02:06:11;;;;;;;32.78;29.38;;;20.90;99.90;;;;;;2064579;28;20100;-71
2021/06/05 02:07:12;;;;;;;30.33;27.27;;;20.90;99.90;;;;;;2065008;28;20026;-71
2021/06/05 02:08:15;;;;;;;26.30;23.77;;;20.90;99.90;;;;;;2064676;28;20026;-71
2021/06/05 02:09:19;;;;;;;29.50;26.65;;;20.90;99.90;;;;;;2072198;28;20026;-71
2021/06/05 02:10:23;;;;;;;30.63;27.48;;;20.90;99.90;;;;;;2071535;28;20037;-71
2021/06/05 02:11:26;;;;;;;27.98;25.10;;;20.90;99.90;;;;;;2059555;28;20031;-71
2021/06/05 02:12:31;;;;;;;28.00;25.15;;;20.90;99.90;;;;;;2062829;28;20120;-71
2021/06/05 02:13:55;;;;;;;32.78;29.33;;;20.90;99.90;;;;;;2063679;28;20587;-71
2021/06/05 02:15:05;;;;;;;31.60;28.10;;;20.90;99.90;;;;;;2060747;28;20026;-71
2021/06/05 02:16:23;;;;;;;30.90;27.90;;;20.90;99.90;;;;;;2064904;28;20060;-71
2021/06/05 02:17:25;;;;;;;31.65;28.42;;;20.90;99.90;;;;;;2064902;28;20026;-71
2021/06/05 02:18:30;;;;;;;32.47;29.23;;;20.90;99.90;;;;;;2064542;28;20033;-71
2021/06/05 02:19:33;;;;;;;33.95;30.35;;;20.90;99.90;;;;;;2072128;28;20498;-71
2021/06/05 02:20:40;;;;;;;33.70;29.92;;;20.90;99.90;;;;;;2071589;28;20026;-71
2021/06/05 02:21:43;;;;;;;31.00;27.55;;;20.90;99.90;;;;;;2063932;28;20031;-71
2021/06/05 02:22:46;;;;;;;33.28;29.92;;;20.90;99.90;;;;;;2063621;28;20105;-71
2021/06/05 02:23:49;;;;;;;31.90;28.50;;;21.00;99.90;;;;;;2064709;28;20030;-71
2021/06/05 02:24:56;;;;;;;30.92;27.85;;;21.00;99.90;;;;;;2064571;28;20418;-71
2021/06/05 02:25:59;;;;;;;33.42;29.95;;;21.00;99.90;;;;;;2064834;28;20030;-71
2021/06/05 02:27:01;;;;;;;34.50;30.42;;;21.00;99.90;;;;;;2064399;28;20139;-71
2021/06/05 02:28:03;;;;;;;35.88;32.03;;;21.00;99.90;;;;;;2064705;28;20058;-71
2021/06/05 02:29:07;;;;;;;36.47;32.72;;;21.00;99.90;;;;;;2064135;28;20030;-71
2021/06/05 02:30:15;;;;;;;39.17;34.70;;;21.00;99.90;;;;;;2064830;28;20034;-71
2021/06/05 02:31:16;;;;;;;39.47;34.75;;;21.00;99.90;;;;;;2065016;28;20053;-71
2021/06/05 02:32:19;;;;;;;37.70;33.25;;;21.00;99.90;;;;;;2065849;28;20092;-71
2021/06/05 02:33:21;;;;;;;36.45;32.50;;;21.00;99.90;;;;;;2065521;28;20026;-71
2021/06/05 02:34:26;;;;;;;40.83;34.72;;;21.00;99.90;;;;;;2066061;28;20037;-71
2021/06/05 02:35:38;;;;;;;37.70;33.63;;;21.00;99.90;;;;;;2066169;28;20027;-71
2021/06/05 02:36:42;;;;;;;38.45;33.83;;;21.00;99.90;;;;;;2066259;28;20033;-71
2021/06/05 02:37:45;;;;;;;35.35;31.63;;;21.00;99.90;;;;;;2066082;28;20019;-71
2021/06/05 02:38:49;;;;;;;40.13;34.63;;;21.00;99.90;;;;;;2066100;28;20402;-71
2021/06/05 02:40:05;;;;;;;38.58;34.53;;;21.00;99.90;;;;;;2066147;28;20034;-71
2021/06/05 02:41:08;;;;;;;37.83;33.72;;;21.00;99.90;;;;;;2066256;28;20750;-71
2021/06/05 02:42:16;;;;;;;40.55;34.70;;;21.00;99.90;;;;;;2057755;28;20019;-71
2021/06/05 02:43:22;;;;;;;38.53;33.53;;;21.00;99.90;;;;;;2058360;28;20054;-71
2021/06/05 02:44:29;;;;;;;39.28;35.08;;;21.00;99.90;;;;;;2062992;28;20018;-70
2021/06/05 02:45:39;;;;;;;40.20;35.33;;;21.00;99.90;;;;;;2061635;28;20111;-71
2021/06/05 02:46:42;;;;;;;38.08;33.85;;;21.00;99.90;;;;;;2066321;28;20018;-71
2021/06/05 02:47:52;;;;;;;40.45;35.75;;;21.00;99.90;;;;;;2066002;28;20078;-71
2021/06/05 02:49:00;;;;;;;39.15;34.38;;;21.00;99.90;;;;;;2065602;28;20030;-71
2021/06/05 02:50:08;;;;;;;39.08;34.88;;;21.00;99.90;;;;;;2065491;28;20482;-71
2021/06/05 02:51:09;;;;;;;40.45;34.40;;;21.10;99.90;;;;;;2065638;28;20077;-71
2021/06/05 02:52:28;;;;;;;37.22;33.22;;;21.00;99.90;;;;;;2065356;28;20033;-71
2021/06/05 02:53:29;;;;;;;37.05;33.17;;;21.00;99.90;;;;;;2063242;28;20426;-71
2021/06/05 02:54:29;;;;;;;34.65;31.00;;;21.00;99.90;;;;;;2065811;28;20030;-71
2021/06/05 02:55:31;;;;;;;38.10;34.10;;;21.10;99.90;;;;;;2066283;28;20037;-71
2021/06/05 02:56:32;;;;;;;39.47;35.33;;;21.00;99.90;;;;;;2059954;28;20039;-71
2021/06/05 02:57:34;;;;;;;39.35;35.25;;;21.00;99.90;;;;;;2064160;28;20026;-71
2021/06/05 02:58:36;;;;;;;38.50;34.35;;;21.00;99.90;;;;;;2066021;28;20030;-71
2021/06/05 02:59:36;;;;;;;34.22;30.60;;;21.00;99.90;;;;;;2066212;28;20026;-71
2021/06/05 03:00:44;;;;;;;35.58;31.33;;;21.00;99.90;;;;;;2065976;28;20069;-71
2021/06/05 03:01:45;;;;;;;36.10;32.25;;;21.00;99.90;;;;;;2064947;28;20030;-71
2021/06/05 03:02:46;;;;;;;38.40;33.47;;;21.00;99.90;;;;;;2064635;28;20033;-71
2021/06/05 03:03:46;;;;;;;33.55;30.02;;;21.00;99.90;;;;;;2064931;28;20038;-71
2021/06/05 03:04:47;;;;;;;34.38;30.77;;;21.00;99.90;;;;;;2072362;28;20067;-71
2021/06/05 03:05:50;;;;;;;35.80;32.00;;;21.00;99.90;;;;;;2079688;28;20525;-71
2021/06/05 03:06:51;;;;;;;33.15;29.40;;;21.00;99.90;;;;;;2063919;28;20026;-71
2021/06/05 03:07:53;;;;;;;34.55;30.90;;;21.00;99.90;;;;;;2064814;28;20022;-71
2021/06/05 03:08:53;;;;;;;35.58;31.75;;;21.00;99.90;;;;;;2064424;28;20390;-71
2021/06/05 03:09:54;;;;;;;36.35;31.45;;;21.00;99.90;;;;;;2064912;28;20117;-71
2021/06/05 03:10:56;;;;;;;33.08;27.88;;;21.00;99.90;;;;;;2064675;28;20023;-71
2021/06/05 03:11:56;;;;;;;32.00;28.60;;;21.00;99.90;;;;;;2064040;28;20022;-71
2021/06/05 03:12:58;;;;;;;35.17;30.27;;;21.00;99.90;;;;;;2063941;28;20018;-71
2021/06/05 03:13:59;;;;;;;34.22;30.63;;;21.00;99.90;;;;;;2064908;28;20023;-71
2021/06/05 03:15:00;;;;;;;33.83;30.13;;;21.00;99.90;;;;;;2064156;28;20054;-71
2021/06/05 03:16:01;;;;;;;32.30;29.00;;;21.00;99.90;;;;;;2072363;28;20129;-71
2021/06/05 03:17:02;;;;;;;29.63;26.55;;;21.00;99.90;;;;;;2071866;28;20394;-71
2021/06/05 03:18:04;;;;;;;29.98;26.88;;;21.00;99.90;;;;;;2064814;28;20018;-71
2021/06/05 03:19:05;;;;;;;31.23;27.67;;;21.00;99.90;;;;;;2064650;28;20476;-71
2021/06/05 03:20:09;;;;;;;29.92;26.83;;;21.00;99.90;;;;;;2064816;28;20018;-71
2021/06/05 03:21:15;;;;;;;28.70;25.77;;;21.00;99.90;;;;;;2064589;28;20034;-71
2021/06/05 03:22:16;;;;;;;29.15;26.02;;;21.00;99.90;;;;;;2064230;28;20029;-71
2021/06/05 03:23:19;;;;;;;31.13;27.90;;;21.00;99.90;;;;;;2060800;28;20051;-70
2021/06/05 03:24:20;;;;;;;27.80;24.95;;;21.00;99.90;;;;;;2056649;28;20521;-70
2021/06/05 03:25:21;;;;;;;26.00;22.80;;;21.00;99.90;;;;;;2063967;28;20382;-70
2021/06/05 03:26:22;;;;;;;28.42;24.38;;;21.00;99.90;;;;;;2064692;28;20682;-70
2021/06/05 03:27:22;;;;;;;26.52;23.73;;;21.00;99.90;;;;;;2064461;28;20714;-70
2021/06/05 03:28:25;;;;;;;28.60;25.83;;;21.00;99.90;;;;;;2064940;28;20030;-71
2021/06/05 03:29:27;;;;;;;26.92;23.65;;;20.90;99.90;;;;;;2064687;28;20065;-71
2021/06/05 03:30:29;;;;;;;26.52;23.77;;;20.90;99.90;;;;;;2064792;28;20030;-71
2021/06/05 03:31:29;;;;;;;28.67;25.80;;;20.90;99.90;;;;;;2071411;28;20034;-71
2021/06/05 03:32:30;;;;;;;27.80;24.83;;;21.00;99.90;;;;;;2071778;28;20025;-70
2021/06/05 03:33:31;;;;;;;26.60;23.85;;;20.90;99.90;;;;;;2059016;28;20090;-70
2021/06/05 03:34:32;;;;;;;24.42;21.83;;;21.00;99.90;;;;;;2064763;28;20033;-70
2021/06/05 03:35:33;;;;;;;21.17;19.02;;;20.90;99.90;;;;;;2068281;28;20056;-70
2021/06/05 03:36:34;;;;;;;23.95;21.45;;;21.00;99.90;;;;;;2070208;28;20478;-71
2021/06/05 03:37:37;;;;;;;25.35;22.65;;;20.90;99.90;;;;;;2070831;28;20021;-71
2021/06/05 03:38:41;;;;;;;24.92;22.48;;;20.90;99.90;;;;;;2064712;28;20025;-71
2021/06/05 03:39:41;;;;;;;26.83;23.42;;;20.90;99.90;;;;;;2064362;28;20022;-71
2021/06/05 03:40:42;;;;;;;24.90;22.25;;;20.90;99.90;;;;;;2064543;28;20050;-71
2021/06/05 03:41:44;;;;;;;27.50;23.30;;;20.90;99.90;;;;;;2059036;28;20478;-71
2021/06/05 03:42:44;;;;;;;28.20;24.98;;;21.00;99.90;;;;;;2067186;28;20070;-71
2021/06/05 03:43:45;;;;;;;26.50;23.67;;;21.00;99.90;;;;;;2071027;28;20037;-71
2021/06/05 03:44:46;;;;;;;28.38;25.33;;;21.00;99.90;;;;;;2064220;28;20105;-70
2021/06/05 03:45:47;;;;;;;30.15;24.27;;;21.00;99.90;;;;;;2059499;28;20031;-70
2021/06/05 03:46:48;;;;;;;27.70;24.75;;;21.00;99.90;;;;;;2071382;28;20033;-70
2021/06/05 03:47:49;;;;;;;25.50;22.95;;;20.90;99.90;;;;;;2077067;28;20060;-70
2021/06/05 03:48:50;;;;;;;26.38;22.73;;;21.00;99.90;;;;;;2064499;28;20042;-71
2021/06/05 03:49:52;;;;;;;28.27;25.38;;;20.90;99.90;;;;;;2064530;28;20579;-70
2021/06/05 03:50:54;;;;;;;24.50;21.92;;;20.90;99.90;;;;;;2064257;28;20022;-70
2021/06/05 03:51:55;;;;;;;25.95;23.25;;;20.90;99.90;;;;;;2063697;28;20052;-71
2021/06/05 03:52:56;;;;;;;23.25;20.95;;;20.90;99.90;;;;;;2064451;28;20613;-70
2021/06/05 03:53:56;;;;;;;22.98;20.65;;;20.90;99.90;;;;;;2063929;28;20505;-70
2021/06/05 03:54:57;;;;;;;22.75;20.55;;;20.90;99.90;;;;;;2064363;28;20467;-70
2021/06/05 03:55:58;;;;;;;25.40;22.80;;;20.90;99.90;;;;;;2070828;28;20018;-70
2021/06/05 03:56:59;;;;;;;23.77;21.45;;;20.90;99.90;;;;;;2071637;28;20069;-70
2021/06/05 03:58:01;;;;;;;26.08;23.27;;;20.90;99.90;;;;;;2064566;28;20022;-70
2021/06/05 03:59:02;;;;;;;22.15;19.85;;;20.90;99.90;;;;;;2064084;28;20030;-70
2021/06/05 04:00:09;;;;;;;25.98;23.27;;;20.90;99.90;;;;;;2064567;28;20046;-70
2021/06/05 04:01:12;;;;;;;23.60;21.45;;;20.90;99.90;;;;;;2063238;28;20018;-70
2021/06/05 04:02:12;;;;;;;25.15;21.95;;;20.90;99.90;;;;;;2063420;28;20015;-71
2021/06/05 04:03:13;;;;;;;26.05;23.33;;;20.90;99.90;;;;;;2063458;28;20483;-71
2021/06/05 04:04:14;;;;;;;26.13;23.30;;;20.90;99.90;;;;;;2071495;28;20449;-71
2021/06/05 04:05:16;;;;;;;25.90;23.30;;;20.90;99.90;;;;;;2071703;28;20053;-71
2021/06/05 04:06:20;;;;;;;26.25;23.42;;;20.90;99.90;;;;;;2064434;28;20027;-71
2021/06/05 04:07:21;;;;;;;23.60;21.20;;;20.90;99.90;;;;;;2064238;28;20049;-71
2021/06/05 04:08:21;;;;;;;24.63;22.15;;;20.90;99.90;;;;;;2064520;28;20027;-71
2021/06/05 04:09:22;;;;;;;24.92;22.33;;;20.90;99.90;;;;;;2064405;28;20081;-71
2021/06/05 04:10:25;;;;;;;25.08;22.45;;;20.90;99.90;;;;;;2064203;28;20033;-71
2021/06/05 04:11:28;;;;;;;23.00;20.67;;;20.90;99.90;;;;;;2063593;28;20696;-71
2021/06/05 04:12:29;;;;;;;25.85;23.23;;;21.00;99.90;;;;;;2063827;28;20062;-71
2021/06/05 04:13:29;;;;;;;25.23;22.65;;;21.00;99.90;;;;;;2063601;28;20034;-70
2021/06/05 04:14:30;;;;;;;24.95;22.27;;;21.00;99.90;;;;;;2064440;28;20091;-70
2021/06/05 04:15:32;;;;;;;24.92;22.13;;;21.00;99.90;;;;;;2064215;28;20047;-70
2021/06/05 04:16:33;;;;;;;26.17;23.48;;;20.90;99.90;;;;;;2064304;28;20065;-70
2021/06/05 04:17:34;;;;;;;26.50;23.65;;;21.00;99.90;;;;;;2064154;28;20030;-70
2021/06/05 04:18:39;;;;;;;23.45;20.95;;;21.00;99.90;;;;;;2064269;28;20086;-70
2021/06/05 04:19:40;;;;;;;27.02;24.23;;;21.00;99.90;;;;;;2063374;28;20050;-70
2021/06/05 04:20:43;;;;;;;30.33;23.70;;;21.00;99.90;;;;;;2063929;28;20062;-70
2021/06/05 04:21:43;;;;;;;26.55;23.75;;;21.00;99.90;;;;;;2063372;28;20022;-70
2021/06/05 04:22:44;;;;;;;27.02;24.33;;;21.00;99.90;;;;;;2064532;28;20122;-70
2021/06/05 04:23:45;;;;;;;26.98;24.13;;;21.00;99.90;;;;;;2063233;28;20030;-70
2021/06/05 04:24:45;;;;;;;29.38;25.00;;;20.90;99.90;;;;;;2064112;28;20030;-70
2021/06/05 04:25:46;;;;;;;26.00;23.15;;;20.90;99.90;;;;;;2063859;28;20125;-70
2021/06/05 04:26:46;;;;;;;26.17;23.48;;;20.90;99.90;;;;;;2064207;28;20030;-70
2021/06/05 04:27:48;;;;;;;27.10;23.95;;;21.00;99.90;;;;;;2064124;28;20148;-70
2021/06/05 04:28:49;;;;;;;27.42;24.50;;;21.00;99.90;;;;;;2072036;28;20026;-70
2021/06/05 04:29:49;;;;;;;28.13;25.13;;;20.90;99.90;;;;;;2071482;28;20036;-70
2021/06/05 04:30:51;;;;;;;28.83;25.55;;;20.90;99.90;;;;;;2064423;28;20030;-71
2021/06/05 04:31:51;;;;;;;26.85;24.02;;;20.90;99.90;;;;;;2063366;28;20113;-70
2021/06/05 04:32:52;;;;;;;27.58;24.60;;;20.90;99.90;;;;;;2064058;28;20037;-70
2021/06/05 04:33:52;;;;;;;28.80;23.95;;;20.90;99.90;;;;;;2063314;28;20038;-70
2021/06/05 04:34:53;;;;;;;28.33;24.45;;;20.90;99.90;;;;;;2064330;28;20026;-70
2021/06/05 04:35:58;;;;;;;29.63;25.75;;;21.00;99.90;;;;;;2063890;28;20022;-70
2021/06/05 04:36:59;;;;;;;28.13;25.17;;;21.00;99.90;;;;;;2064285;28;20038;-70
2021/06/05 04:37:59;;;;;;;31.35;26.05;;;20.90;99.90;;;;;;2063838;28;20069;-70
2021/06/05 04:39:00;;;;;;;28.92;25.92;;;20.90;99.90;;;;;;2064357;28;20033;-70
2021/06/05 04:40:01;;;;;;;28.92;25.17;;;21.00;99.90;;;;;;2064253;28;20066;-70
2021/06/05 04:41:03;;;;;;;31.23;26.00;;;21.00;99.90;;;;;;2063917;28;20015;-70
2021/06/05 04:42:05;;;;;;;29.77;26.30;;;21.00;99.90;;;;;;2055523;28;20026;-70
2021/06/05 04:43:06;;;;;;;28.42;25.45;;;21.00;99.90;;;;;;2063214;28;20077;-70
2021/06/05 04:44:07;;;;;;;30.02;25.45;;;21.00;99.90;;;;;;2063486;28;20030;-70
2021/06/05 04:45:08;;;;;;;29.58;25.25;;;21.00;99.90;;;;;;2062108;28;20102;-70
2021/06/05 04:46:09;;;;;;;31.38;27.50;;;21.00;99.90;;;;;;2061415;28;20475;-70
2021/06/05 04:47:10;;;;;;;28.23;24.50;;;21.00;99.90;;;;;;2063789;28;20630;-70
2021/06/05 04:48:10;;;;;;;26.52;23.65;;;21.00;99.90;;;;;;2064340;28;20366;-70
2021/06/05 04:49:11;;;;;;;31.13;26.45;;;21.00;99.90;;;;;;2063226;28;20022;-70
2021/06/05 04:50:16;;;;;;;29.30;25.90;;;21.00;99.90;;;;;;2063444;28;20100;-70
2021/06/05 04:51:21;;;;;;;26.92;24.13;;;21.00;99.90;;;;;;2063452;28;20142;-70
2021/06/05 04:52:22;;;;;;;28.70;24.55;;;21.00;99.90;;;;;;2063710;28;20038;-70
2021/06/05 04:53:23;;;;;;;29.30;25.50;;;21.00;99.90;;;;;;2063265;28;20023;-70
2021/06/05 04:54:24;;;;;;;29.42;25.17;;;21.00;99.90;;;;;;2063295;28;20113;-70
2021/06/05 04:55:25;;;;;;;28.63;24.60;;;21.00;99.90;;;;;;2063237;28;20018;-70
2021/06/05 04:56:34;;;;;;;26.27;22.50;;;21.00;99.90;;;;;;2064000;28;20057;-70
2021/06/05 04:57:35;;;;;;;28.02;24.85;;;21.00;99.90;;;;;;2063961;28;20105;-70
2021/06/05 04:58:36;;;;;;;29.70;23.48;;;21.00;99.90;;;;;;2063915;28;20026;-70
2021/06/05 04:59:36;;;;;;;28.20;24.45;;;21.00;99.90;;;;;;2063693;28;20035;-71
2021/06/05 05:00:41;;;;;;;29.73;26.48;;;21.10;99.90;;;;;;2063675;28;20018;-71
2021/06/05 05:01:41;;;;;;;29.02;25.58;;;21.10;99.90;;;;;;2063096;28;20018;-70
2021/06/05 05:02:42;;;;;;;29.15;25.63;;;21.00;99.90;;;;;;2063529;28;20038;-70
2021/06/05 05:03:43;;;;;;;34.00;26.00;;;21.10;99.90;;;;;;2063152;28;20502;-70
2021/06/05 05:04:43;;;;;;;29.20;24.40;;;21.10;99.90;;;;;;2063260;28;20022;-70
2021/06/05 05:05:44;;;;;;;27.42;24.25;;;21.10;99.90;;;;;;2063488;28;20026;-70
2021/06/05 05:06:45;;;;;;;29.58;26.30;;;21.10;99.90;;;;;;2071227;28;20109;-70
2021/06/05 05:07:48;;;;;;;30.25;26.50;;;21.10;99.90;;;;;;2071363;28;20038;-70
2021/06/05 05:08:49;;;;;;;31.05;26.63;;;21.10;99.90;;;;;;2063733;28;20106;-70
2021/06/05 05:09:49;;;;;;;32.90;28.00;;;21.10;99.90;;;;;;2063579;28;20038;-70
2021/06/05 05:10:52;;;;;;;28.67;25.67;;;21.10;99.90;;;;;;2055587;28;20031;-70
2021/06/05 05:11:52;;;;;;;28.90;25.85;;;21.10;99.90;;;;;;2055310;28;20030;-70
2021/06/05 05:12:53;;;;;;;28.65;25.10;;;21.10;99.90;;;;;;2055824;28;20069;-70
2021/06/05 05:13:53;;;;;;;29.23;25.83;;;21.10;99.90;;;;;;2055818;28;20114;-70
2021/06/05 05:14:54;;;;;;;30.80;27.02;;;21.10;99.90;;;;;;2057553;28;20041;-70
2021/06/05 05:15:56;;;;;;;30.55;26.10;;;21.10;99.90;;;;;;2063854;28;20029;-70
2021/06/05 05:16:57;;;;;;;32.63;28.02;;;21.10;99.90;;;;;;2063770;28;20030;-70
2021/06/05 05:17:58;;;;;;;32.10;27.83;;;21.10;99.90;;;;;;2070909;28;20018;-70
2021/06/05 05:18:59;;;;;;;28.05;24.98;;;21.10;99.90;;;;;;2071037;28;20026;-70
2021/06/05 05:20:01;;;;;;;29.65;26.42;;;21.10;99.90;;;;;;2063927;28;20542;-71
2021/06/05 05:21:02;;;;;;;31.27;26.73;;;21.10;99.90;;;;;;2063725;28;20018;-70